Lulu Pass Weather Station

This weather station provides temperature, relative humidity (RH), wind speed, gust or max wind speed, and wind direction at 10014ft near Lulu Pass at the head of Fisher Creek. This data can be used with temperature and precipitation data from the Fisher Creek SNOTEL site.

This weather station was purchased by the Friends of the Avalanche Center.

If the data has not been updated recently you can view it directly on datagarrison.com

Elevation
10014ft
Jump to table bottom
Date Time Temperature
deg F
RH, % Wind Speed Wind Gust Wind Direction
09/24/20 17:00 51.0 34 19 35 SW - 227
09/24/20 16:00 54.1 31 21 43 SW - 229
09/24/20 15:00 53.2 32 17 40 W - 248
09/24/20 14:00 55.6 29 17 43 SW - 230
09/24/20 13:00 55.1 31 24 52 SW - 206
09/24/20 12:00 55.0 32 20 53 SW - 211
09/24/20 11:00 51.4 35 18 36 SW - 209
09/24/20 10:00 49.7 36 14 32 SW - 220
09/24/20 09:00 47.4 38 18 37 SW - 213
09/24/20 08:00 45.4 41 17 34 SW - 213
09/24/20 07:00 44.8 43 21 37 SW - 209
09/24/20 06:00 45.1 43 21 35 SW - 212
09/24/20 05:00 45.7 42 22 40 SW - 213
09/24/20 04:00 45.8 42 13 37 SW - 220
09/24/20 03:00 45.5 43 9 26 SW - 239
09/24/20 02:00 45.1 44 10 24 SW - 229
09/24/20 01:00 46.3 41 11 24 SW - 227
09/24/20 00:00 46.2 40 13 24 SW - 223
09/23/20 23:00 46.9 38 10 30 SW - 241
09/23/20 22:00 46.0 41 7 17 SW - 247
09/23/20 21:00 46.6 43 9 24 SW - 232
09/23/20 20:00 47.5 42 11 24 SW - 236
09/23/20 19:00 48.9 40 12 27 SW - 230
09/23/20 18:00 51.3 37 12 27 SW - 237
09/23/20 17:00 55.0 33 15 30 SW - 226
09/23/20 16:00 56.3 31 13 28 SW - 236
09/23/20 15:00 54.9 32 11 25 SW - 234
09/23/20 14:00 52.2 32 10 24 W - 261
09/23/20 13:00 50.4 35 11 26 W - 281
09/23/20 12:00 47.7 42 14 32 W - 286
09/23/20 11:00 45.2 46 10 23 W - 288
09/23/20 10:00 42.5 51 6 17 W - 277
09/23/20 09:00 40.9 53 3 8 W - 286
09/23/20 08:00 39.0 55 3 6 W - 278
09/23/20 07:00 38.9 53 5 8 NW - 324
09/23/20 06:00 38.6 53 4 7 NW - 299
09/23/20 05:00 39.4 51 3 7 W - 292
09/23/20 04:00 40.5 49 6 16 SW - 246
09/23/20 03:00 42.9 45 10 25 SW - 223
09/23/20 02:00 43.3 45 8 21 SW - 225
09/23/20 01:00 43.8 44 8 20 SW - 229
09/23/20 00:00 45.7 41 10 20 SW - 209
09/22/20 23:00 46.7 40 8 17 SW - 215
09/22/20 22:00 47.6 39 8 16 SW - 219
09/22/20 21:00 47.7 36 9 19 SW - 227
09/22/20 20:00 48.2 39 10 26 SW - 236
09/22/20 19:00 48.2 42 12 38 NW - 298
09/22/20 18:00 51.0 39 13 31 W - 289
09/22/20 17:00 53.9 36 10 28 SW - 247
09/22/20 16:00 54.5 40 13 29 SW - 208